sensor_id;sensor_type;location;lat;lon;timestamp;pressure;altitude;pressure_sealevel;temperature;humidity
19797;BME280;10058;57.654;12.044;2023-04-08T00:00:41;102226.34;;;6.51;100.00
19797;BME280;10058;57.654;12.044;2023-04-08T00:03:07;102226.34;;;6.38;100.00
19797;BME280;10058;57.654;12.044;2023-04-08T00:08:35;102227.31;;;6.26;100.00
19797;BME280;10058;57.654;12.044;2023-04-08T00:11:00;102226.22;;;6.23;100.00
19797;BME280;10058;57.654;12.044;2023-04-08T00:13:25;102212.34;;;6.12;100.00
19797;BME280;10058;57.654;12.044;2023-04-08T00:15:50;102215.78;;;6.24;100.00
19797;BME280;10058;57.654;12.044;2023-04-08T00:18:15;102218.00;;;6.18;100.00
19797;BME280;10058;57.654;12.044;2023-04-08T00:20:41;102210.84;;;6.29;100.00
19797;BME280;10058;57.654;12.044;2023-04-08T00:23:06;102215.38;;;6.18;100.00
19797;BME280;10058;57.654;12.044;2023-04-08T00:28:34;102205.91;;;6.20;100.00
19797;BME280;10058;57.654;12.044;2023-04-08T00:30:59;102205.91;;;6.20;100.00
19797;BME280;10058;57.654;12.044;2023-04-08T00:33:24;102212.97;;;6.21;100.00
19797;BME280;10058;57.654;12.044;2023-04-08T00:35:50;102215.75;;;6.11;100.00
19797;BME280;10058;57.654;12.044;2023-04-08T00:38:15;102211.84;;;6.18;100.00
19797;BME280;10058;57.654;12.044;2023-04-08T00:40:40;102205.19;;;6.23;100.00
19797;BME280;10058;57.654;12.044;2023-04-08T00:43:05;102206.28;;;6.26;100.00
19797;BME280;10058;57.654;12.044;2023-04-08T00:48:33;102207.88;;;6.11;100.00
19797;BME280;10058;57.654;12.044;2023-04-08T00:50:59;102208.13;;;6.27;100.00
19797;BME280;10058;57.654;12.044;2023-04-08T00:53:24;102214.22;;;6.40;100.00
19797;BME280;10058;57.654;12.044;2023-04-08T00:55:50;102215.59;;;6.21;100.00
19797;BME280;10058;57.654;12.044;2023-04-08T00:58:15;102214.88;;;6.24;100.00
19797;BME280;10058;57.654;12.044;2023-04-08T01:00:53;102204.06;;;6.19;100.00
19797;BME280;10058;57.654;12.044;2023-04-08T01:08:56;102222.66;;;6.22;100.00
19797;BME280;10058;57.654;12.044;2023-04-08T01:11:23;102219.03;;;6.34;100.00
19797;BME280;10058;57.654;12.044;2023-04-08T01:13:51;102211.53;;;6.26;100.00
19797;BME280;10058;57.654;12.044;2023-04-08T01:16:19;102223.66;;;6.24;100.00
19797;BME280;10058;57.654;12.044;2023-04-08T01:18:46;102213.78;;;6.34;100.00
19797;BME280;10058;57.654;12.044;2023-04-08T01:21:12;102218.63;;;6.27;100.00
19797;BME280;10058;57.654;12.044;2023-04-08T01:29:15;102229.31;;;6.17;100.00
19797;BME280;10058;57.654;12.044;2023-04-08T01:31:41;102227.81;;;6.21;100.00
19797;BME280;10058;57.654;12.044;2023-04-08T01:34:06;102221.84;;;6.23;100.00
19797;BME280;10058;57.654;12.044;2023-04-08T01:36:32;102225.47;;;6.12;100.00
19797;BME280;10058;57.654;12.044;2023-04-08T01:38:59;102221.44;;;6.17;100.00
19797;BME280;10058;57.654;12.044;2023-04-08T01:41:25;102226.91;;;6.20;100.00
19797;BME280;10058;57.654;12.044;2023-04-08T01:43:51;102225.84;;;6.05;100.00
19797;BME280;10058;57.654;12.044;2023-04-08T01:49:20;102238.38;;;6.09;100.00
19797;BME280;10058;57.654;12.044;2023-04-08T01:51:46;102235.59;;;6.19;100.00
19797;BME280;10058;57.654;12.044;2023-04-08T01:54:12;102231.09;;;6.05;100.00
19797;BME280;10058;57.654;12.044;2023-04-08T01:56:38;102233.34;;;6.12;100.00
19797;BME280;10058;57.654;12.044;2023-04-08T01:59:05;102231.09;;;6.05;100.00
19797;BME280;10058;57.654;12.044;2023-04-08T02:01:33;102228.84;;;5.98;100.00
19797;BME280;10058;57.654;12.044;2023-04-08T02:03:59;102232.88;;;5.93;100.00
19797;BME280;10058;57.654;12.044;2023-04-08T02:09:27;102229.47;;;6.07;100.00
19797;BME280;10058;57.654;12.044;2023-04-08T02:11:52;102241.19;;;5.99;100.00
19797;BME280;10058;57.654;12.044;2023-04-08T02:14:18;102239.56;;;6.01;100.00
19797;BME280;10058;57.654;12.044;2023-04-08T02:19:18;102243.00;;;6.00;100.00
19797;BME280;10058;57.654;12.044;2023-04-08T02:21:48;102257.75;;;5.86;100.00
19797;BME280;10058;57.654;12.044;2023-04-08T02:24:16;102243.41;;;6.06;100.00
19797;BME280;10058;57.654;12.044;2023-04-08T02:29:44;102248.25;;;6.00;100.00
19797;BME280;10058;57.654;12.044;2023-04-08T02:32:10;102260.72;;;6.16;100.00
19797;BME280;10058;57.654;12.044;2023-04-08T02:34:37;102261.19;;;6.10;100.00
19797;BME280;10058;57.654;12.044;2023-04-08T02:37:04;102257.13;;;6.02;100.00
19797;BME280;10058;57.654;12.044;2023-04-08T02:39:32;102264.63;;;6.09;100.00
19797;BME280;10058;57.654;12.044;2023-04-08T02:41:57;102266.63;;;6.00;100.00
19797;BME280;10058;57.654;12.044;2023-04-08T02:47:25;102273.56;;;6.00;100.00
19797;BME280;10058;57.654;12.044;2023-04-08T02:49:50;102279.97;;;6.03;100.00
19797;BME280;10058;57.654;12.044;2023-04-08T02:52:17;102267.84;;;6.05;100.00
19797;BME280;10058;57.654;12.044;2023-04-08T02:54:42;102277.00;;;5.99;100.00
19797;BME280;10058;57.654;12.044;2023-04-08T02:57:07;102282.72;;;5.93;100.00
19797;BME280;10058;57.654;12.044;2023-04-08T02:59:32;102277.59;;;5.94;100.00
19797;BME280;10058;57.654;12.044;2023-04-08T03:01:58;102279.44;;;5.84;100.00
19797;BME280;10058;57.654;12.044;2023-04-08T03:07:26;102285.00;;;6.00;100.00
19797;BME280;10058;57.654;12.044;2023-04-08T03:09:51;102291.41;;;5.80;100.00
19797;BME280;10058;57.654;12.044;2023-04-08T03:12:16;102291.63;;;5.95;100.00
19797;BME280;10058;57.654;12.044;2023-04-08T03:14:42;102288.41;;;5.99;100.00
19797;BME280;10058;57.654;12.044;2023-04-08T03:17:07;102294.56;;;6.00;100.00
19797;BME280;10058;57.654;12.044;2023-04-08T03:19:32;102298.91;;;5.99;100.00
19797;BME280;10058;57.654;12.044;2023-04-08T03:21:57;102294.25;;;5.95;100.00
19797;BME280;10058;57.654;12.044;2023-04-08T03:24:22;102298.25;;;5.90;100.00
19797;BME280;10058;57.654;12.044;2023-04-08T03:29:50;102300.31;;;5.82;100.00
19797;BME280;10058;57.654;12.044;2023-04-08T03:32:17;102298.47;;;5.93;100.00
19797;BME280;10058;57.654;12.044;2023-04-08T03:34:42;102300.28;;;5.94;100.00
19797;BME280;10058;57.654;12.044;2023-04-08T03:37:07;102303.72;;;5.93;100.00
19797;BME280;10058;57.654;12.044;2023-04-08T03:39:32;102306.00;;;6.00;100.00
19797;BME280;10058;57.654;12.044;2023-04-08T03:41:57;102302.81;;;5.92;100.00
19797;BME280;10058;57.654;12.044;2023-04-08T03:47:27;102305.53;;;6.06;100.00
19797;BME280;10058;57.654;12.044;2023-04-08T03:49:52;102306.91;;;6.01;100.00
19797;BME280;10058;57.654;12.044;2023-04-08T03:52:18;102306.56;;;5.96;100.00
19797;BME280;10058;57.654;12.044;2023-04-08T03:54:43;102307.91;;;6.03;100.00
19797;BME280;10058;57.654;12.044;2023-04-08T03:57:09;102311.00;;;5.97;100.00
19797;BME280;10058;57.654;12.044;2023-04-08T03:59:35;102310.09;;;5.97;100.00
19797;BME280;10058;57.654;12.044;2023-04-08T04:02:01;102314.22;;;5.93;100.00
19797;BME280;10058;57.654;12.044;2023-04-08T04:04:26;102324.19;;;6.10;100.00
19797;BME280;10058;57.654;12.044;2023-04-08T04:09:54;102321.50;;;5.97;100.00
19797;BME280;10058;57.654;12.044;2023-04-08T04:12:21;102324.72;;;5.93;100.00
19797;BME280;10058;57.654;12.044;2023-04-08T04:14:46;102317.31;;;5.87;100.00
19797;BME280;10058;57.654;12.044;2023-04-08T04:17:11;102323.56;;;6.01;100.00
19797;BME280;10058;57.654;12.044;2023-04-08T04:19:36;102328.88;;;6.14;100.00
19797;BME280;10058;57.654;12.044;2023-04-08T04:22:01;102323.00;;;5.93;100.00
19797;BME280;10058;57.654;12.044;2023-04-08T04:27:29;102319.47;;;5.93;100.00
19797;BME280;10058;57.654;12.044;2023-04-08T04:29:54;102326.09;;;5.88;100.00
19797;BME280;10058;57.654;12.044;2023-04-08T04:32:20;102328.59;;;5.86;100.00
19797;BME280;10058;57.654;12.044;2023-04-08T04:34:45;102332.28;;;5.77;100.00
19797;BME280;10058;57.654;12.044;2023-04-08T04:37:10;102324.72;;;5.93;100.00
19797;BME280;10058;57.654;12.044;2023-04-08T04:39:35;102327.91;;;5.89;100.00
19797;BME280;10058;57.654;12.044;2023-04-08T04:42:01;102325.50;;;5.92;100.00
19797;BME280;10058;57.654;12.044;2023-04-08T04:47:30;102331.50;;;6.14;100.00
19797;BME280;10058;57.654;12.044;2023-04-08T04:49:56;102324.94;;;5.96;100.00
19797;BME280;10058;57.654;12.044;2023-04-08T04:52:21;102328.00;;;6.02;100.00
19797;BME280;10058;57.654;12.044;2023-04-08T04:54:47;102335.91;;;5.90;100.00
19797;BME280;10058;57.654;12.044;2023-04-08T04:57:12;102328.81;;;6.01;100.00
19797;BME280;10058;57.654;12.044;2023-04-08T04:59:37;102334.59;;;6.09;100.00
19797;BME280;10058;57.654;12.044;2023-04-08T05:02:02;102341.81;;;6.00;100.00
19797;BME280;10058;57.654;12.044;2023-04-08T05:07:30;102358.25;;;5.97;100.00
19797;BME280;10058;57.654;12.044;2023-04-08T05:09:55;102349.94;;;5.91;100.00
19797;BME280;10058;57.654;12.044;2023-04-08T05:12:21;102352.72;;;6.17;100.00
19797;BME280;10058;57.654;12.044;2023-04-08T05:14:46;102348.38;;;6.18;100.00
19797;BME280;10058;57.654;12.044;2023-04-08T05:17:11;102343.91;;;6.17;100.00
19797;BME280;10058;57.654;12.044;2023-04-08T05:19:36;102353.69;;;5.94;100.00
19797;BME280;10058;57.654;12.044;2023-04-08T05:22:01;102355.91;;;6.13;100.00
19797;BME280;10058;57.654;12.044;2023-04-08T05:27:29;102354.66;;;6.20;100.00
19797;BME280;10058;57.654;12.044;2023-04-08T05:29:55;102353.63;;;6.18;100.00
19797;BME280;10058;57.654;12.044;2023-04-08T05:32:20;102355.81;;;6.37;100.00
19797;BME280;10058;57.654;12.044;2023-04-08T05:34:45;102354.88;;;6.23;100.00
19797;BME280;10058;57.654;12.044;2023-04-08T05:37:10;102356.84;;;6.39;100.00
19797;BME280;10058;57.654;12.044;2023-04-08T05:39:36;102348.38;;;6.18;100.00
19797;BME280;10058;57.654;12.044;2023-04-08T05:42:01;102357.50;;;6.11;100.00
19797;BME280;10058;57.654;12.044;2023-04-08T05:47:29;102356.59;;;6.22;100.00
19797;BME280;10058;57.654;12.044;2023-04-08T05:49:54;102356.41;;;6.33;100.00
19797;BME280;10058;57.654;12.044;2023-04-08T05:52:19;102359.66;;;6.42;100.00
19797;BME280;10058;57.654;12.044;2023-04-08T05:54:45;102350.03;;;6.54;100.00
19797;BME280;10058;57.654;12.044;2023-04-08T05:57:10;102366.16;;;6.47;100.00
19797;BME280;10058;57.654;12.044;2023-04-08T05:59:35;102366.19;;;6.60;100.00
19797;BME280;10058;57.654;12.044;2023-04-08T06:02:01;102358.41;;;6.61;100.00
19797;BME280;10058;57.654;12.044;2023-04-08T06:04:26;102358.16;;;6.70;100.00
19797;BME280;10058;57.654;12.044;2023-04-08T06:09:54;102364.13;;;6.81;100.00
19797;BME280;10058;57.654;12.044;2023-04-08T06:12:19;102372.53;;;6.88;100.00
19797;BME280;10058;57.654;12.044;2023-04-08T06:14:45;102373.03;;;6.83;100.00
19797;BME280;10058;57.654;12.044;2023-04-08T06:17:10;102376.38;;;6.93;100.00
19797;BME280;10058;57.654;12.044;2023-04-08T06:19:35;102381.47;;;7.04;100.00
19797;BME280;10058;57.654;12.044;2023-04-08T06:22:01;102377.38;;;6.95;100.00
19797;BME280;10058;57.654;12.044;2023-04-08T06:27:28;102378.41;;;6.97;100.00
19797;BME280;10058;57.654;12.044;2023-04-08T06:29:53;102378.72;;;7.02;100.00
19797;BME280;10058;57.654;12.044;2023-04-08T06:32:19;102375.78;;;6.97;100.00
19797;BME280;10058;57.654;12.044;2023-04-08T06:34:44;102384.88;;;7.03;100.00
19797;BME280;10058;57.654;12.044;2023-04-08T06:37:10;102387.72;;;7.06;100.00
19797;BME280;10058;57.654;12.044;2023-04-08T06:39:35;102396.81;;;6.97;100.00
19797;BME280;10058;57.654;12.044;2023-04-08T06:42:00;102388.53;;;7.05;100.00
19797;BME280;10058;57.654;12.044;2023-04-08T06:47:28;102388.31;;;7.02;100.00
19797;BME280;10058;57.654;12.044;2023-04-08T06:49:53;102398.47;;;7.22;100.00
19797;BME280;10058;57.654;12.044;2023-04-08T06:52:19;102396.84;;;7.24;100.00
19797;BME280;10058;57.654;12.044;2023-04-08T06:54:44;102392.50;;;7.24;100.00
19797;BME280;10058;57.654;12.044;2023-04-08T06:57:10;102403.94;;;7.38;100.00
19797;BME280;10058;57.654;12.044;2023-04-08T06:59:35;102403.03;;;7.24;100.00
19797;BME280;10058;57.654;12.044;2023-04-08T07:02:00;102404.53;;;7.34;100.00
19797;BME280;10058;57.654;12.044;2023-04-08T07:07:34;102401.50;;;7.41;100.00
19797;BME280;10058;57.654;12.044;2023-04-08T07:10:00;102399.78;;;7.55;100.00
19797;BME280;10058;57.654;12.044;2023-04-08T07:12:25;102392.47;;;7.77;100.00
19797;BME280;10058;57.654;12.044;2023-04-08T07:14:50;102400.06;;;7.73;100.00
19797;BME280;10058;57.654;12.044;2023-04-08T07:17:17;102400.06;;;7.73;100.00
19797;BME280;10058;57.654;12.044;2023-04-08T07:19:42;102394.41;;;7.66;100.00
19797;BME280;10058;57.654;12.044;2023-04-08T07:22:08;102398.84;;;7.81;100.00
19797;BME280;10058;57.654;12.044;2023-04-08T07:24:33;102405.22;;;7.71;100.00
19797;BME280;10058;57.654;12.044;2023-04-08T07:30:01;102400.56;;;7.67;100.00
19797;BME280;10058;57.654;12.044;2023-04-08T07:32:26;102397.00;;;7.80;100.00
19797;BME280;10058;57.654;12.044;2023-04-08T07:34:52;102404.66;;;8.03;100.00
19797;BME280;10058;57.654;12.044;2023-04-08T07:37:17;102402.44;;;8.09;100.00
19797;BME280;10058;57.654;12.044;2023-04-08T07:39:42;102404.06;;;8.07;100.00
19797;BME280;10058;57.654;12.044;2023-04-08T07:42:07;102400.00;;;7.99;100.00
19797;BME280;10058;57.654;12.044;2023-04-08T07:44:32;102400.63;;;8.08;100.00
19797;BME280;10058;57.654;12.044;2023-04-08T07:50:01;102405.59;;;8.31;100.00
19797;BME280;10058;57.654;12.044;2023-04-08T07:52:26;102394.78;;;8.55;100.00
19797;BME280;10058;57.654;12.044;2023-04-08T07:54:51;102397.44;;;8.55;100.00
19797;BME280;10058;57.654;12.044;2023-04-08T07:57:16;102406.59;;;8.47;100.00
19797;BME280;10058;57.654;12.044;2023-04-08T07:59:42;102405.09;;;8.65;100.00
19797;BME280;10058;57.654;12.044;2023-04-08T08:02:07;102401.88;;;8.56;100.00
19797;BME280;10058;57.654;12.044;2023-04-08T08:07:35;102401.38;;;8.76;100.00
19797;BME280;10058;57.654;12.044;2023-04-08T08:10:00;102402.13;;;8.88;100.00
19797;BME280;10058;57.654;12.044;2023-04-08T08:12:25;102409.91;;;8.72;100.00
19797;BME280;10058;57.654;12.044;2023-04-08T08:14:50;102400.16;;;8.99;100.00
19797;BME280;10058;57.654;12.044;2023-04-08T08:17:18;102401.50;;;9.07;100.00
19797;BME280;10058;57.654;12.044;2023-04-08T08:19:43;102394.41;;;9.06;100.00
19797;BME280;10058;57.654;12.044;2023-04-08T08:22:10;102397.59;;;9.30;100.00
19797;BME280;10058;57.654;12.044;2023-04-08T08:27:38;102407.56;;;9.50;100.00
19797;BME280;10058;57.654;12.044;2023-04-08T08:30:05;102406.56;;;9.19;100.00
19797;BME280;10058;57.654;12.044;2023-04-08T08:32:31;102404.13;;;9.22;100.00
19797;BME280;10058;57.654;12.044;2023-04-08T08:34:56;102418.19;;;9.66;100.00
19797;BME280;10058;57.654;12.044;2023-04-08T08:37:21;102407.81;;;9.55;100.00
19797;BME280;10058;57.654;12.044;2023-04-08T08:39:47;102403.16;;;9.65;100.00
19797;BME280;10058;57.654;12.044;2023-04-08T08:42:19;102413.28;;;9.89;100.00
19797;BME280;10058;57.654;12.044;2023-04-08T08:47:48;102410.56;;;10.18;100.00
19797;BME280;10058;57.654;12.044;2023-04-08T08:50:13;102408.63;;;10.30;100.00
19797;BME280;10058;57.654;12.044;2023-04-08T08:52:38;102419.59;;;10.07;100.00
19797;BME280;10058;57.654;12.044;2023-04-08T08:55:03;102422.56;;;10.44;100.00
19797;BME280;10058;57.654;12.044;2023-04-08T08:57:29;102410.56;;;10.18;100.00
19797;BME280;10058;57.654;12.044;2023-04-08T08:59:54;102413.03;;;10.15;100.00
19797;BME280;10058;57.654;12.044;2023-04-08T09:02:23;102418.72;;;10.37;100.00
19797;BME280;10058;57.654;12.044;2023-04-08T09:07:51;102417.28;;;10.44;100.00
19797;BME280;10058;57.654;12.044;2023-04-08T09:10:17;102415.72;;;10.64;100.00
19797;BME280;10058;57.654;12.044;2023-04-08T09:12:53;102414.31;;;10.70;100.00
19797;BME280;10058;57.654;12.044;2023-04-08T09:15:19;102410.91;;;10.89;100.00
19797;BME280;10058;57.654;12.044;2023-04-08T09:17:45;102410.16;;;10.75;100.00
19797;BME280;10058;57.654;12.044;2023-04-08T09:20:11;102406.38;;;10.87;100.00
19797;BME280;10058;57.654;12.044;2023-04-08T09:22:56;102415.09;;;11.02;100.00
19797;BME280;10058;57.654;12.044;2023-04-08T09:28:24;102410.78;;;10.70;100.00
19797;BME280;10058;57.654;12.044;2023-04-08T09:30:49;102401.00;;;10.85;100.00
19797;BME280;10058;57.654;12.044;2023-04-08T09:33:14;102406.56;;;11.07;100.00
19797;BME280;10058;57.654;12.044;2023-04-08T09:35:40;102410.72;;;11.02;100.00
19797;BME280;10058;57.654;12.044;2023-04-08T09:38:06;102399.72;;;11.29;100.00
19797;BME280;10058;57.654;12.044;2023-04-08T09:40:34;102403.81;;;11.40;100.00
19797;BME280;10058;57.654;12.044;2023-04-08T09:43:01;102404.38;;;11.16;100.00
19797;BME280;10058;57.654;12.044;2023-04-08T09:48:31;102391.94;;;12.03;100.00
19797;BME280;10058;57.654;12.044;2023-04-08T09:51:02;102386.44;;;12.37;100.00
19797;BME280;10058;57.654;12.044;2023-04-08T09:53:34;102395.22;;;12.16;100.00
19797;BME280;10058;57.654;12.044;2023-04-08T09:56:00;102393.66;;;12.59;100.00
19797;BME280;10058;57.654;12.044;2023-04-08T09:58:33;102386.31;;;12.53;100.00
19797;BME280;10058;57.654;12.044;2023-04-08T10:01:02;102387.91;;;12.49;100.00
19797;BME280;10058;57.654;12.044;2023-04-08T10:03:29;102386.53;;;12.58;100.00
19797;BME280;10058;57.654;12.044;2023-04-08T10:09:00;102383.19;;;12.62;100.00
19797;BME280;10058;57.654;12.044;2023-04-08T10:11:26;102378.88;;;12.65;100.00
19797;BME280;10058;57.654;12.044;2023-04-08T10:13:52;102390.69;;;12.52;100.00
19797;BME280;10058;57.654;12.044;2023-04-08T10:18:42;102379.53;;;12.60;100.00
19797;BME280;10058;57.654;12.044;2023-04-08T10:21:50;102371.91;;;12.67;100.00
19797;BME280;10058;57.654;12.044;2023-04-08T10:23:57;102373.78;;;12.89;100.00
19797;BME280;10058;57.654;12.044;2023-04-08T10:29:32;102370.38;;;13.12;100.00
19797;BME280;10058;57.654;12.044;2023-04-08T10:31:57;102371.06;;;13.08;100.00
19797;BME280;10058;57.654;12.044;2023-04-08T10:34:24;102370.94;;;13.05;100.00
19797;BME280;10058;57.654;12.044;2023-04-08T10:36:50;102361.75;;;12.97;100.00
19797;BME280;10058;57.654;12.044;2023-04-08T10:39:16;102364.06;;;12.89;100.00
19797;BME280;10058;57.654;12.044;2023-04-08T10:41:44;102358.25;;;12.98;100.00
19797;BME280;10058;57.654;12.044;2023-04-08T10:47:12;102365.25;;;13.38;100.00
19797;BME280;10058;57.654;12.044;2023-04-08T10:49:38;102358.47;;;13.23;100.00
19797;BME280;10058;57.654;12.044;2023-04-08T10:52:07;102357.75;;;13.48;100.00
19797;BME280;10058;57.654;12.044;2023-04-08T10:54:32;102354.91;;;13.44;100.00
19797;BME280;10058;57.654;12.044;2023-04-08T10:56:58;102355.53;;;13.59;100.00
19797;BME280;10058;57.654;12.044;2023-04-08T10:59:30;102349.25;;;13.79;100.00
19797;BME280;10058;57.654;12.044;2023-04-08T11:01:58;102350.44;;;13.87;100.00
19797;BME280;10058;57.654;12.044;2023-04-08T11:04:25;102343.38;;;14.10;100.00
19797;BME280;10058;57.654;12.044;2023-04-08T11:09:54;102347.97;;;13.70;100.00
19797;BME280;10058;57.654;12.044;2023-04-08T11:12:19;102344.78;;;13.78;100.00
19797;BME280;10058;57.654;12.044;2023-04-08T11:14:45;102341.03;;;13.96;100.00
19797;BME280;10058;57.654;12.044;2023-04-08T11:17:11;102346.84;;;13.63;100.00
19797;BME280;10058;57.654;12.044;2023-04-08T11:19:39;102339.09;;;13.69;100.00
19797;BME280;10058;57.654;12.044;2023-04-08T11:22:04;102337.53;;;13.97;100.00
19797;BME280;10058;57.654;12.044;2023-04-08T11:24:31;102330.22;;;14.37;100.00
19797;BME280;10058;57.654;12.044;2023-04-08T11:29:59;102321.81;;;14.49;100.00
19797;BME280;10058;57.654;12.044;2023-04-08T11:32:25;102327.31;;;14.53;100.00
19797;BME280;10058;57.654;12.044;2023-04-08T11:34:51;102323.94;;;14.35;100.00
19797;BME280;10058;57.654;12.044;2023-04-08T11:37:17;102321.41;;;14.62;100.00
19797;BME280;10058;57.654;12.044;2023-04-08T11:39:42;102317.63;;;14.81;100.00
19797;BME280;10058;57.654;12.044;2023-04-08T11:42:08;102322.28;;;14.86;100.00
19797;BME280;10058;57.654;12.044;2023-04-08T11:47:36;102325.34;;;14.98;100.00
19797;BME280;10058;57.654;12.044;2023-04-08T11:50:01;102322.31;;;14.88;100.00
19797;BME280;10058;57.654;12.044;2023-04-08T11:52:46;102321.78;;;14.98;100.00
19797;BME280;10058;57.654;12.044;2023-04-08T11:55:12;102313.25;;;15.35;100.00
19797;BME280;10058;57.654;12.044;2023-04-08T11:57:45;102322.22;;;15.64;100.00
19797;BME280;10058;57.654;12.044;2023-04-08T12:00:10;102317.28;;;15.22;100.00
19797;BME280;10058;57.654;12.044;2023-04-08T12:02:36;102321.00;;;15.27;100.00
19797;BME280;10058;57.654;12.044;2023-04-08T12:08:04;102310.53;;;15.33;100.00
19797;BME280;10058;57.654;12.044;2023-04-08T12:10:29;102308.47;;;15.52;100.00
19797;BME280;10058;57.654;12.044;2023-04-08T12:12:55;102308.25;;;15.46;100.00
19797;BME280;10058;57.654;12.044;2023-04-08T12:15:20;102312.19;;;15.55;100.00
19797;BME280;10058;57.654;12.044;2023-04-08T12:17:45;102307.22;;;15.68;100.00
19797;BME280;10058;57.654;12.044;2023-04-08T12:20:10;102302.91;;;15.71;100.00
19797;BME280;10058;57.654;12.044;2023-04-08T12:22:36;102304.81;;;15.75;100.00
19797;BME280;10058;57.654;12.044;2023-04-08T12:28:04;102293.69;;;16.20;100.00
19797;BME280;10058;57.654;12.044;2023-04-08T12:30:29;102288.16;;;16.14;100.00
19797;BME280;10058;57.654;12.044;2023-04-08T12:32:55;102292.50;;;16.40;100.00
19797;BME280;10058;57.654;12.044;2023-04-08T12:35:21;102295.97;;;16.06;100.00
19797;BME280;10058;57.654;12.044;2023-04-08T12:37:46;102288.25;;;16.17;100.00
19797;BME280;10058;57.654;12.044;2023-04-08T12:40:12;102285.44;;;16.42;100.00
19797;BME280;10058;57.654;12.044;2023-04-08T12:42:37;102279.06;;;16.68;100.00
19797;BME280;10058;57.654;12.044;2023-04-08T12:48:05;102281.28;;;16.53;100.00
19797;BME280;10058;57.654;12.044;2023-04-08T12:50:30;102248.97;;;16.43;100.00
19797;BME280;10058;57.654;12.044;2023-04-08T12:52:55;102287.16;;;16.40;100.00
19797;BME280;10058;57.654;12.044;2023-04-08T12:55:22;102278.06;;;15.72;100.00
19797;BME280;10058;57.654;12.044;2023-04-08T12:57:51;102279.06;;;15.76;100.00
19797;BME280;10058;57.654;12.044;2023-04-08T13:00:16;102274.81;;;16.14;100.00
19797;BME280;10058;57.654;12.044;2023-04-08T13:02:41;102266.53;;;16.03;100.00
19797;BME280;10058;57.654;12.044;2023-04-08T13:08:10;102269.00;;;16.27;100.00
19797;BME280;10058;57.654;12.044;2023-04-08T13:10:36;102266.72;;;16.09;100.00
19797;BME280;10058;57.654;12.044;2023-04-08T13:13:01;102266.34;;;16.27;100.00
19797;BME280;10058;57.654;12.044;2023-04-08T13:15:26;102271.06;;;16.06;100.00
19797;BME280;10058;57.654;12.044;2023-04-08T13:17:51;102267.50;;;15.75;100.00
19797;BME280;10058;57.654;12.044;2023-04-08T13:20:17;102264.72;;;16.33;100.00
19797;BME280;10058;57.654;12.044;2023-04-08T13:22:42;102272.72;;;16.02;100.00
19797;BME280;10058;57.654;12.044;2023-04-08T13:28:10;102269.47;;;16.44;100.00
19797;BME280;10058;57.654;12.044;2023-04-08T13:30:35;102269.75;;;16.54;100.00
19797;BME280;10058;57.654;12.044;2023-04-08T13:33:00;102264.75;;;16.66;100.00
19797;BME280;10058;57.654;12.044;2023-04-08T13:35:25;102266.69;;;16.08;100.00
19797;BME280;10058;57.654;12.044;2023-04-08T13:37:51;102273.09;;;15.84;100.00
19797;BME280;10058;57.654;12.044;2023-04-08T13:40:16;102276.84;;;15.62;100.00
19797;BME280;10058;57.654;12.044;2023-04-08T13:42:41;102265.38;;;16.25;100.00
19797;BME280;10058;57.654;12.044;2023-04-08T13:48:09;102247.16;;;16.73;100.00
19797;BME280;10058;57.654;12.044;2023-04-08T13:50:34;102258.34;;;16.93;100.00
19797;BME280;10058;57.654;12.044;2023-04-08T13:53:00;102257.97;;;16.78;100.00
19797;BME280;10058;57.654;12.044;2023-04-08T13:55:25;102262.28;;;16.41;100.00
19797;BME280;10058;57.654;12.044;2023-04-08T13:57:50;102252.00;;;16.56;100.00
19797;BME280;10058;57.654;12.044;2023-04-08T14:00:15;102259.75;;;17.15;100.00
19797;BME280;10058;57.654;12.044;2023-04-08T14:02:41;102257.78;;;16.72;100.00
19797;BME280;10058;57.654;12.044;2023-04-08T14:08:08;102255.53;;;16.55;100.00
19797;BME280;10058;57.654;12.044;2023-04-08T14:10:33;102253.25;;;16.36;100.00
19797;BME280;10058;57.654;12.044;2023-04-08T14:12:59;102255.63;;;15.95;100.00
19797;BME280;10058;57.654;12.044;2023-04-08T14:15:24;102250.63;;;16.38;100.00
19797;BME280;10058;57.654;12.044;2023-04-08T14:17:49;102254.09;;;16.35;100.00
19797;BME280;10058;57.654;12.044;2023-04-08T14:20:14;102254.13;;;16.36;100.00
19797;BME280;10058;57.654;12.044;2023-04-08T14:22:39;102258.91;;;15.85;100.00
19797;BME280;10058;57.654;12.044;2023-04-08T14:28:08;102253.06;;;16.30;100.00
19797;BME280;10058;57.654;12.044;2023-04-08T14:30:34;102250.00;;;16.81;100.00
19797;BME280;10058;57.654;12.044;2023-04-08T14:33:00;102250.72;;;16.74;100.00
19797;BME280;10058;57.654;12.044;2023-04-08T14:35:25;102264.41;;;16.54;100.00
19797;BME280;10058;57.654;12.044;2023-04-08T14:37:50;102260.38;;;16.37;100.00
19797;BME280;10058;57.654;12.044;2023-04-08T14:40:16;102246.31;;;15.81;100.00
19797;BME280;10058;57.654;12.044;2023-04-08T14:42:41;102256.63;;;15.69;100.00
19797;BME280;10058;57.654;12.044;2023-04-08T14:48:09;102254.53;;;15.59;100.00
19797;BME280;10058;57.654;12.044;2023-04-08T14:50:34;102250.38;;;15.42;100.00
19797;BME280;10058;57.654;12.044;2023-04-08T14:52:59;102253.44;;;15.25;100.00
19797;BME280;10058;57.654;12.044;2023-04-08T14:55:25;102246.28;;;15.24;100.00